Flight Track Log - Related Links

Times and Time Zones

All times are in EDT time to prevent confusion due to time zone crossing. See the ASQ6137 flight status page for this flight to view local times or setup timezone preferences in your user account.


Time Position Orientation Groundspeed Altitude Reporting Facility
EDT Latitude Longitude Course Direction KTS MPH feet Rate Location/Type
Fri 10:21:47 AM 33.5725 -86.7464 54° Northeast 149 171 1,500  Level Atlanta Center
Fri 10:22:24 AM 33.5919 -86.7147 54° Northeast 173 199 2,700 1,546 Climbing Atlanta Center
Fri 10:23:24 AM 33.6481 -86.7314 346° North 264 304 4,000 1,438 Climbing Atlanta Center
Fri 10:24:25 AM 33.7156 -86.7858 326° Northwest 315 362 5,600 1,732 Climbing Atlanta Center
Fri 10:25:01 AM 33.7506 -86.8094 331° Northwest 304 350 6,800 2,220 Climbing Atlanta Center
Fri 10:26:32 AM 33.8742 -86.8297 352° North 333 383 10,300 1,907 Climbing Memphis Center
Fri 10:27:32 AM 33.9600 -86.8361 356° North 308 354 11,600 1,350 Climbing Memphis Center
Fri 10:28:32 AM 34.0519 -86.8400 358° North 316 364 13,000 1,300 Climbing Memphis Center
Fri 10:29:32 AM 34.1481 -86.8458 357° North 329 379 14,200 1,050 Climbing Memphis Center
Fri 10:30:32 AM 34.2503 -86.8494 358° North 348 400 15,100 1,007 Climbing Memphis Center
Fri 10:32:01 AM 34.4158 -86.8336 North 370 426 16,700 1,047 Climbing Atlanta Center
Fri 10:33:01 AM 34.5244 -86.8272 North 376 433 17,700 950 Climbing Atlanta Center
Fri 10:34:01 AM 34.6353 -86.8158 North 386 444 18,600 950 Climbing Atlanta Center
Fri 10:35:01 AM 34.7461 -86.8069 North 391 450 19,600 950 Climbing Atlanta Center
Fri 10:36:01 AM 34.8592 -86.7953 North 396 456 20,500 950 Climbing Atlanta Center
Fri 10:37:01 AM 34.9719 -86.7864 North 402 463 21,500 1,000 Climbing Atlanta Center
Fri 10:38:01 AM 35.0869 -86.7775 North 407 468 22,500 1,000 Climbing Atlanta Center
Fri 10:39:01 AM 35.2039 -86.7686 North 407 468 23,500 911 Climbing Atlanta Center
Fri 10:39:20 AM 35.2389 -86.7650 North 408 470 23,700 911 Climbing Memphis Center
Fri 10:40:20 AM 35.3556 -86.7572 North 419 482 24,700 1,000 Climbing Memphis Center
Fri 10:41:20 AM 35.4742 -86.7444 North 419 482 25,700 1,000 Climbing Memphis Center
Fri 10:42:20 AM 35.5906 -86.7344 North 419 482 26,700 1,000 Climbing Memphis Center
Fri 10:43:20 AM 35.7072 -86.7267 North 414 476 27,700 950 Climbing Memphis Center
Fri 10:44:20 AM 35.8214 -86.7139 North 419 482 28,600 950 Climbing Memphis Center
Fri 10:45:20 AM 35.9358 -86.7036 North 419 482 29,600 1,000 Climbing Memphis Center
Fri 10:46:20 AM 36.0503 -86.6936 North 419 482 30,600 1,000 Climbing Memphis Center
Fri 10:47:20 AM 36.1644 -86.6806 North 419 482 31,600 950 Climbing Memphis Center
Fri 10:48:20 AM 36.2808 -86.6703 North 419 482 32,500 950 Climbing Memphis Center
Fri 10:49:20 AM 36.4014 -86.6597 North 426 490 33,500 1,000 Climbing Memphis Center
Fri 10:50:20 AM 36.5178 -86.6414 North 421 484 34,500 750 Climbing Memphis Center
Fri 10:51:20 AM 36.6178 -86.5772 27° Northeast 402 463 35,000 250 Climbing Memphis Center
Fri 10:52:20 AM 36.7242 -86.5075 28° Northeast 418 481 35,000  Level Memphis Center
Fri 10:53:20 AM 36.8222 -86.4433 28° Northeast 428 493 35,000  Level Memphis Center
Fri 10:54:20 AM 36.9383 -86.3650 28° Northeast 448 516 35,000  Level Memphis Center
Fri 10:56:30 AM 37.1894 -86.1983 28° Northeast 475 547 35,000  Level Indianapolis Center
Fri 10:57:32 AM 37.3061 -86.1183 29° Northeast 473 544 35,000  Level Indianapolis Center
Fri 10:58:34 AM 37.4222 -86.0400 28° Northeast 470 541 35,000  Level Indianapolis Center
Fri 10:59:36 AM 37.5583 -85.9503 28° Northeast 470 541 35,000  Level Indianapolis Center
Fri 11:00:38 AM 37.6569 -85.8836 28° Northeast 470 541 35,000  Level Indianapolis Center
Fri 11:01:39 AM 37.7961 -85.7894 28° Northeast 473 544 35,000  Level Indianapolis Center
Fri 11:02:41 AM 37.9106 -85.7106 29° Northeast 470 541 35,000  Level Indianapolis Center
Fri 11:03:43 AM 38.0250 -85.6319 28° Northeast 468 539 35,000  Level Indianapolis Center
Fri 11:04:45 AM 38.1397 -85.5536 28° Northeast 468 539 35,000  Level Indianapolis Center
Fri 11:05:47 AM 38.2539 -85.4747 28° Northeast 467 537 35,000  Level Indianapolis Center
Fri 11:06:49 AM 38.3697 -85.3964 28° Northeast 469 540 35,000  Level Indianapolis Center
Fri 11:07:51 AM 38.4833 -85.3192 28° Northeast 464 534 35,000  Level Indianapolis Center
Fri 11:08:52 AM 38.6208 -85.2233 29° Northeast 468 539 35,000  Level Indianapolis Center
Fri 11:09:54 AM 38.7219 -85.1539 28° Northeast 469 540 35,000  Level Indianapolis Center
Fri 11:10:56 AM 38.8350 -85.0769 28° Northeast 466 536 35,000  Level Indianapolis Center
Fri 11:11:58 AM 38.9717 -84.9817 28° Northeast 466 536 35,000  Level Indianapolis Center
Fri 11:13:00 AM 39.0844 -84.9025 29° Northeast 466 536 35,000  Level Indianapolis Center
Fri 11:14:01 AM 39.1950 -84.8250 29° Northeast 465 535 35,000  Level Indianapolis Center
Fri 11:15:03 AM 39.3094 -84.7444 29° Northeast 464 534 35,000  Level Indianapolis Center
Fri 11:16:05 AM 39.4386 -84.7219 North 467 537 35,000  Level Indianapolis Center
Fri 11:17:07 AM 39.5706 -84.7333 356° North 469 540 35,000  Level Indianapolis Center
Fri 11:18:08 AM 39.7183 -84.7806 346° North 463 533 35,000  Level Indianapolis Center
Fri 11:19:10 AM 39.8494 -84.8225 346° North 472 543 35,000  Level Indianapolis Center
Fri 11:20:12 AM 39.9808 -84.8642 346° North 478 550 35,000  Level Indianapolis Center
Fri 11:21:13 AM 40.1003 -84.9019 346° North 475 547 35,000 -488 Level Indianapolis Center
Fri 11:22:15 AM 40.2261 -84.9428 346° North 471 542 34,000 -484 Descending Indianapolis Center
Fri 11:23:17 AM 40.3783 -84.9922 346° North 472 543 34,000  Level Indianapolis Center
Fri 11:24:19 AM 40.5019 -85.0322 346° North 462 532 34,000  Level Indianapolis Center
Fri 11:25:21 AM 40.6156 -85.0872 340° North 443 510 34,000  Level Indianapolis Center
Fri 11:26:17 AM 40.7186 -85.1578 333° Northwest 430 495 34,000 -203 Level Chicago Center
Fri 11:27:19 AM 40.8197 -85.2461 327° Northwest 432 497 33,600 -1,065 Descending Chicago Center
Fri 11:28:21 AM 40.9108 -85.3503 319° Northwest 433 498 31,800 -1,805 Descending Chicago Center
Fri 11:29:22 AM 41.0000 -85.4558 318° Northwest 431 496 29,900 -1,951 Descending Chicago Center
Fri 11:30:24 AM 41.0881 -85.5619 318° Northwest 428 493 27,800 -2,081 Descending Chicago Center
Fri 11:31:26 AM 41.1728 -85.6622 318° Northwest 411 473 25,600 -1,839 Descending Chicago Center
Fri 11:32:28 AM 41.2164 -85.7858 295° West 371 427 24,000 -780 Descending Chicago Center
Fri 11:33:29 AM 41.2339 -85.9219 280° West 370 426 24,000 -488 Level Chicago Center
Fri 11:34:31 AM 41.2506 -86.0811 278° West 364 419 23,000 -1,161 Descending Chicago Center
Fri 11:35:33 AM 41.2022 -86.1911 240° Southwest 348 400 21,600 -1,220 Descending Chicago Center
Fri 11:36:34 AM 41.1597 -86.2897 240° Southwest 315 362 20,500 -1,171 Descending Chicago Center
Fri 11:37:36 AM 41.1186 -86.3878 241° Southwest 305 351 19,200 -1,065 Descending Chicago Center
Fri 11:38:38 AM 41.1522 -86.4917 293° West 316 364 18,300 -1,065 Descending Chicago Center
Fri 11:39:40 AM 41.2044 -86.5803 308° West 308 354 17,000 -1,452 Descending Chicago Center
Fri 11:40:42 AM 41.2542 -86.6736 305° West 309 356 15,300 -1,839 Descending Chicago Center
Fri 11:41:44 AM 41.3164 -86.7864 306° West 312 359 13,200 -1,659 Descending Chicago Center
Fri 11:42:45 AM 41.3647 -86.8761 306° West 305 351 11,900 -1,024 Descending Chicago Center
Fri 11:43:47 AM 41.4106 -86.9611 306° West 291 335 11,100 -435 Descending Chicago Center
Fri 11:44:49 AM 41.4536 -87.0422 305° West 277 319 11,000 -50 Descending Chicago Center
Fri 11:45:46 AM 41.5000 -87.1333 304° West 269 310 11,000  Level Chicago TRACON
Fri 11:46:46 AM 41.5500 -87.2167 309° West 272 313 11,000  Level Chicago TRACON
Fri 11:47:46 AM 41.6000 -87.2833 315° West 285 328 11,000 -554 Level Chicago TRACON
Fri 11:48:56 AM 41.6542 -87.3747 308° West 280 322 9,800 -1,099 Descending Chicago Center
Fri 11:49:57 AM 41.7008 -87.4506 310° West 271 312 8,600 -1,171 Descending Chicago Center
Fri 11:50:59 AM 41.7475 -87.5244 310° West 265 305 7,400 -774 Descending Chicago Center
Fri 11:52:01 AM 41.7939 -87.5967 311° West 260 299 7,000 -222 Descending Chicago Center
Fri 11:52:47 AM 41.8333 -87.6667 307° West 259 298 7,000  Level Chicago TRACON
Fri 11:53:47 AM 41.8833 -87.7333 315° West 260 299 7,000  Level Chicago TRACON
Fri 11:54:47 AM 41.9000 -87.8167 285° West 249 287 7,000  Level Chicago TRACON
Fri 11:55:47 AM 41.9000 -87.9000 270° West 215 247 7,000  Level Chicago TRACON
Fri 11:56:47 AM 41.9000 -87.9833 270° West 207 238 7,000 -400 Level Chicago TRACON
Fri 11:57:47 AM 41.9000 -88.0500 270° West 198 228 6,200 -900 Descending Chicago TRACON
Fri 11:58:47 AM 41.9000 -88.1167 270° West 199 229 5,200 -847 Descending Chicago TRACON
Fri 11:59:12 AM 41.8936 -88.1558 258° West 199 229 5,000 -138 Descending Chicago Center
Fri 12:00:14 PM 41.8986 -88.2303 275° West 201 231 5,000  Level Chicago Center
Fri 12:01:15 PM 41.8933 -88.3014 264° West 197 227 5,000  Level Chicago Center
Fri 12:02:17 PM 41.8903 -88.3736 267° West 196 226 5,000  Level Chicago Center
Fri 12:03:18 PM 41.9289 -88.4103 325° Northwest 207 238 5,000  Level Chicago Center
Fri 12:04:20 PM 41.9708 -88.3833 26° Northeast 225 259 5,000  Level Chicago Center
Fri 12:05:22 PM 41.9678 -88.3175 94° East 187 215 5,000  Level Chicago Center
Fri 12:06:23 PM 41.9669 -88.2375 91° East 179 206 5,000 -390 Level Chicago Center
Fri 12:07:25 PM 41.9675 -88.1711 89° East 179 206 4,200 -871 Descending Chicago Center
Fri 12:08:27 PM 41.9678 -88.1017 90° East 181 208 3,200 -1,012 Descending Chicago Center
Fri 12:08:48 PM 41.9667 -88.0667 92° East 181 208 2,800 -829 Descending Chicago TRACON
Fri 12:10:30 PM 41.9681 -87.9783 89° East 170 196 1,500 -800 Descending Chicago Center
Fri 12:10:48 PM 41.9667 -87.9667 99° East 130 150 1,200 -1,000 Descending Chicago TRACON

Login

Don't have an account? Register now (free) for customized features, flight alerts, and more!